createdAt,value
2018-04-30T00:00:24.355Z,86.20
2018-04-30T00:02:51.849Z,86.70
2018-04-30T00:05:19.341Z,86.90
2018-04-30T00:07:46.841Z,86.10
2018-04-30T00:10:14.345Z,86.90
2018-04-30T00:12:41.844Z,87.70
2018-04-30T00:15:09.337Z,87.40
2018-04-30T00:17:36.827Z,87.00
2018-04-30T00:20:04.348Z,88.00
2018-04-30T00:22:32.612Z,88.00
2018-04-30T00:25:00.092Z,87.90
2018-04-30T00:27:28.352Z,88.50
2018-04-30T00:29:56.599Z,89.10
2018-04-30T00:32:24.140Z,88.70
2018-04-30T00:34:51.630Z,89.00
2018-04-30T00:37:19.120Z,89.10
2018-04-30T00:39:46.627Z,90.10
2018-04-30T00:42:14.116Z,89.50
2018-04-30T00:44:41.633Z,90.10
2018-04-30T00:47:09.124Z,90.00
2018-04-30T00:49:36.608Z,89.60
2018-04-30T00:52:04.872Z,89.70
2018-04-30T00:54:44.122Z,89.60
2018-04-30T00:57:11.640Z,90.10
2018-04-30T00:59:39.123Z,89.30
2018-04-30T01:02:06.629Z,88.50
2018-04-30T01:04:34.152Z,88.10
2018-04-30T01:07:01.643Z,86.70
2018-04-30T01:09:29.163Z,84.40
2018-04-30T01:11:56.738Z,83.00
2018-04-30T01:14:24.223Z,82.80
2018-04-30T01:16:52.480Z,83.10
2018-04-30T01:19:19.963Z,83.00
2018-04-30T01:21:47.473Z,85.20
2018-04-30T01:24:15.721Z,87.50
2018-04-30T01:26:43.227Z,87.50
2018-04-30T01:29:10.735Z,89.00
2018-04-30T01:31:38.243Z,89.60
2018-04-30T01:34:06.529Z,88.30
2018-04-30T01:36:34.007Z,88.80
2018-04-30T01:39:01.499Z,89.30
2018-04-30T01:41:28.993Z,89.10
2018-04-30T01:43:56.491Z,89.60
2018-04-30T01:46:23.999Z,90.20
2018-04-30T01:48:52.261Z,88.70
2018-04-30T01:51:19.778Z,88.70
2018-04-30T01:53:47.281Z,83.70
2018-04-30T01:56:14.772Z,81.20
2018-04-30T01:58:42.282Z,82.60
2018-04-30T02:01:10.542Z,86.10
2018-04-30T02:03:38.028Z,86.00
2018-04-30T02:06:05.528Z,85.30
2018-04-30T02:08:33.016Z,86.00
2018-04-30T02:11:00.541Z,85.70
2018-04-30T02:13:28.023Z,85.90
2018-04-30T02:15:55.494Z,86.40
2018-04-30T02:18:22.993Z,82.10
2018-04-30T02:20:51.381Z,82.90
2018-04-30T02:23:18.884Z,82.90
2018-04-30T02:25:46.376Z,83.50
2018-04-30T02:28:13.857Z,82.10
2018-04-30T02:30:42.115Z,82.90
2018-04-30T02:33:09.593Z,82.90
2018-04-30T02:35:37.901Z,83.40
2018-04-30T02:38:05.398Z,83.40
2018-04-30T02:40:32.887Z,82.30
2018-04-30T02:43:00.396Z,81.90
2018-04-30T02:45:27.881Z,85.70
2018-04-30T02:47:55.380Z,87.20
2018-04-30T02:50:22.877Z,86.20
2018-04-30T02:52:50.395Z,84.50
2018-04-30T02:55:17.910Z,83.10
2018-04-30T02:57:45.406Z,84.80
2018-04-30T03:00:12.905Z,85.80
2018-04-30T03:02:41.164Z,86.70
2018-04-30T03:05:08.662Z,86.60
2018-04-30T03:07:36.151Z,86.00
2018-04-30T03:10:03.643Z,87.10
2018-04-30T03:12:31.133Z,84.70
2018-04-30T03:14:59.382Z,86.20
2018-04-30T03:17:26.857Z,86.20
2018-04-30T03:19:54.355Z,86.70
2018-04-30T03:22:21.844Z,87.60
2018-04-30T03:24:49.337Z,88.30
2018-04-30T03:27:16.851Z,88.00
2018-04-30T03:29:45.082Z,89.10
2018-04-30T03:32:12.574Z,89.00
2018-04-30T03:34:40.819Z,88.50
2018-04-30T03:37:08.369Z,88.50
2018-04-30T03:39:36.612Z,89.40
2018-04-30T03:42:04.109Z,89.30
2018-04-30T03:44:31.602Z,89.80
2018-04-30T03:46:59.075Z,89.30
2018-04-30T03:49:26.562Z,89.00
2018-04-30T03:51:54.055Z,89.10
2018-04-30T03:54:21.532Z,88.40
2018-04-30T03:56:49.043Z,88.50
2018-04-30T03:59:16.537Z,87.90
2018-04-30T04:01:55.814Z,89.30
2018-04-30T04:04:35.998Z,89.30
2018-04-30T04:07:03.486Z,89.30
2018-04-30T04:09:30.967Z,89.10
2018-04-30T04:11:58.457Z,88.90
2018-04-30T04:14:25.936Z,88.30
2018-04-30T04:16:54.185Z,89.00
2018-04-30T04:19:21.674Z,89.00
2018-04-30T04:21:49.928Z,90.20
2018-04-30T04:24:17.424Z,90.20
2018-04-30T04:26:44.904Z,89.10
2018-04-30T04:29:12.397Z,88.50
2018-04-30T04:31:39.915Z,88.90
2018-04-30T04:34:08.157Z,87.90
2018-04-30T04:36:35.640Z,88.60
2018-04-30T04:39:03.936Z,88.30
2018-04-30T04:41:31.438Z,88.30
2018-04-30T04:43:58.932Z,88.60
2018-04-30T04:46:26.428Z,89.10
2018-04-30T04:48:54.691Z,88.70
2018-04-30T04:51:22.965Z,89.20
2018-04-30T04:53:51.224Z,89.40
2018-04-30T04:56:18.730Z,89.40
2018-04-30T04:58:46.213Z,89.50
2018-04-30T05:01:13.732Z,90.20
2018-04-30T05:03:41.207Z,90.50
2018-04-30T05:06:08.685Z,90.40
2018-04-30T05:08:36.172Z,90.20
2018-04-30T05:11:03.673Z,90.50
2018-04-30T05:13:31.199Z,90.70
2018-04-30T05:15:58.682Z,90.80
2018-04-30T05:18:26.158Z,91.20
2018-04-30T05:20:53.652Z,91.00
2018-04-30T05:23:21.163Z,90.80
2018-04-30T05:25:48.817Z,90.40
2018-04-30T05:28:16.308Z,90.10
2018-04-30T05:30:43.821Z,89.30
2018-04-30T05:33:11.306Z,88.30
2018-04-30T05:35:38.781Z,89.20
2018-04-30T05:38:06.318Z,89.20
2018-04-30T05:40:33.801Z,89.20
2018-04-30T05:43:01.279Z,89.20
2018-04-30T05:45:28.784Z,90.00
2018-04-30T05:47:56.278Z,90.10
2018-04-30T05:50:23.874Z,90.00
2018-04-30T05:52:51.408Z,90.20
2018-04-30T05:55:18.894Z,90.20
2018-04-30T05:57:46.406Z,90.70
2018-04-30T06:00:13.871Z,90.40
2018-04-30T06:02:41.366Z,89.30
2018-04-30T06:05:08.943Z,88.90
2018-04-30T06:07:36.429Z,89.40
2018-04-30T06:10:03.942Z,86.20
2018-04-30T06:12:32.200Z,84.70
2018-04-30T06:15:00.461Z,85.10
2018-04-30T06:17:28.734Z,87.50
2018-04-30T06:19:56.206Z,87.40
2018-04-30T06:22:24.470Z,83.70
2018-04-30T06:24:51.964Z,83.60
2018-04-30T06:27:19.470Z,81.20
2018-04-30T06:29:46.958Z,82.30
2018-04-30T06:32:14.450Z,79.60
2018-04-30T06:34:42.709Z,77.60
2018-04-30T06:37:10.192Z,77.70
2018-04-30T06:39:37.748Z,77.50
2018-04-30T06:42:06.016Z,77.80
2018-04-30T06:44:33.505Z,77.70
2018-04-30T06:47:00.997Z,78.20
2018-04-30T06:49:28.477Z,78.10
2018-04-30T06:51:55.975Z,77.40
2018-04-30T06:54:24.253Z,71.20
2018-04-30T06:56:52.493Z,70.10
2018-04-30T06:59:19.991Z,70.10
2018-04-30T07:01:48.263Z,76.20
2018-04-30T07:04:15.751Z,76.20
2018-04-30T07:06:43.251Z,73.50
2018-04-30T07:09:11.565Z,74.30
2018-04-30T07:12:06.352Z,74.40
2018-04-30T07:14:34.369Z,72.90
2018-04-30T07:17:01.887Z,70.50
2018-04-30T07:19:29.377Z,73.10
2018-04-30T07:21:56.889Z,70.90
2018-04-30T07:24:24.391Z,72.60
2018-04-30T07:26:51.916Z,71.60
2018-04-30T07:29:19.463Z,71.40
2018-04-30T07:31:47.941Z,70.70
2018-04-30T07:34:15.425Z,70.70
2018-04-30T07:36:43.697Z,67.30
2018-04-30T07:42:45.205Z,65.50
2018-04-30T07:45:12.711Z,65.40
2018-04-30T07:47:40.233Z,63.70
2018-04-30T07:50:07.778Z,64.20
2018-04-30T07:52:36.040Z,67.20
2018-04-30T07:55:03.568Z,67.80
2018-04-30T07:57:31.064Z,67.00
2018-04-30T07:59:58.582Z,66.60
2018-04-30T08:02:26.104Z,64.50
2018-04-30T08:04:54.404Z,61.90
2018-04-30T08:07:22.837Z,64.20
2018-04-30T08:09:50.334Z,64.20
2018-04-30T08:12:18.639Z,62.90
2018-04-30T08:14:46.187Z,62.90
2018-04-30T08:17:14.446Z,57.70
2018-04-30T08:19:41.973Z,57.70
2018-04-30T08:22:09.471Z,58.10
2018-04-30T08:24:36.965Z,62.70
2018-04-30T08:27:04.472Z,58.80
2018-04-30T08:29:31.964Z,59.90
2018-04-30T08:31:59.860Z,59.60
2018-04-30T08:34:28.103Z,56.90
2018-04-30T08:36:55.590Z,56.90
2018-04-30T08:39:23.867Z,59.30
2018-04-30T08:41:52.136Z,58.90
2018-04-30T08:44:19.680Z,58.80
2018-04-30T08:46:47.167Z,60.10
2018-04-30T08:49:14.650Z,58.30
2018-04-30T08:51:42.939Z,56.50
2018-04-30T08:54:10.428Z,56.40
2018-04-30T08:56:37.939Z,59.60
2018-04-30T08:59:05.432Z,58.90
2018-04-30T09:01:32.945Z,56.60
2018-04-30T09:04:00.429Z,57.00
2018-04-30T09:06:28.689Z,57.40
2018-04-30T09:08:56.211Z,57.00
2018-04-30T09:11:23.697Z,57.00
2018-04-30T09:13:51.196Z,55.50
2018-04-30T09:16:18.703Z,55.30
2018-04-30T09:18:46.213Z,54.80
2018-04-30T09:21:13.738Z,55.70
2018-04-30T09:23:41.248Z,56.10
2018-04-30T09:26:08.726Z,57.70
2018-04-30T09:28:36.986Z,58.30
2018-04-30T09:31:04.497Z,58.40
2018-04-30T09:33:32.233Z,58.20
2018-04-30T09:36:00.484Z,58.30
2018-04-30T09:38:27.977Z,58.30
2018-04-30T09:40:56.241Z,65.00
2018-04-30T09:43:23.777Z,65.00
2018-04-30T09:45:51.280Z,60.80
2018-04-30T09:48:19.545Z,57.80
2018-04-30T09:50:47.036Z,57.70
2018-04-30T09:53:15.286Z,58.10
2018-04-30T09:55:42.761Z,58.10
2018-04-30T09:58:11.037Z,61.90
2018-04-30T10:00:38.524Z,61.80
2018-04-30T10:03:06.027Z,54.40
2018-04-30T10:05:33.524Z,54.60
2018-04-30T10:08:01.023Z,52.70
2018-04-30T10:10:28.542Z,55.50
2018-04-30T10:12:56.060Z,50.10
2018-04-30T10:15:23.566Z,50.00
2018-04-30T10:17:51.187Z,46.60
2018-04-30T10:20:18.619Z,42.10
2018-04-30T10:22:47.112Z,45.20
2018-04-30T10:25:14.611Z,45.10
2018-04-30T10:27:42.145Z,40.60
2018-04-30T10:30:09.639Z,39.60
2018-04-30T10:32:37.387Z,37.30
2018-04-30T10:35:04.911Z,38.80
2018-04-30T10:37:32.418Z,43.00
2018-04-30T10:39:59.909Z,40.90
2018-04-30T10:42:27.742Z,38.80
2018-04-30T10:44:55.257Z,43.00
2018-04-30T10:47:22.809Z,40.00
2018-04-30T10:49:50.308Z,36.80
2018-04-30T10:52:18.603Z,39.60
2018-04-30T10:54:46.875Z,36.70
2018-04-30T10:57:15.154Z,35.20
2018-04-30T10:59:43.467Z,36.10
2018-04-30T11:02:10.974Z,36.10
2018-04-30T11:04:38.500Z,33.10
2018-04-30T11:07:06.005Z,35.20
2018-04-30T11:09:33.507Z,33.30
2018-04-30T11:12:01.047Z,36.30
2018-04-30T11:14:28.552Z,33.40
2018-04-30T11:16:56.099Z,32.30
2018-04-30T11:19:23.619Z,32.00
2018-04-30T11:21:51.124Z,31.70
2018-04-30T11:24:18.799Z,32.90
2018-04-30T11:26:46.317Z,34.20
2018-04-30T11:29:14.576Z,32.40
2018-04-30T11:31:42.079Z,31.80
2018-04-30T11:34:10.382Z,29.90
2018-04-30T11:36:37.896Z,29.80
2018-04-30T11:39:06.177Z,33.90
2018-04-30T11:41:33.678Z,33.00
2018-04-30T11:44:01.197Z,31.80
2018-04-30T11:46:28.725Z,33.70
2018-04-30T11:48:56.323Z,31.70
2018-04-30T11:51:23.827Z,29.20
2018-04-30T11:53:52.093Z,30.20
2018-04-30T11:56:20.377Z,31.00
2018-04-30T11:58:48.723Z,28.70
2018-04-30T12:01:16.958Z,29.10
2018-04-30T12:03:44.475Z,29.00
2018-04-30T12:06:11.999Z,33.10
2018-04-30T12:08:39.488Z,32.00
2018-04-30T12:11:07.058Z,29.30
2018-04-30T12:13:34.515Z,30.90
2018-04-30T12:16:02.016Z,31.30
2018-04-30T12:18:30.293Z,32.50
2018-04-30T12:20:58.797Z,29.10
2018-04-30T12:23:26.350Z,29.10
2018-04-30T12:25:53.884Z,29.40
2018-04-30T12:28:21.416Z,28.30
2018-04-30T12:30:48.935Z,30.20
2018-04-30T12:33:17.211Z,31.90
2018-04-30T12:35:45.492Z,30.60
2018-04-30T12:38:13.748Z,32.30
2018-04-30T12:40:41.248Z,32.20
2018-04-30T12:43:08.792Z,27.50
2018-04-30T12:45:36.275Z,30.20
2018-04-30T12:48:03.768Z,33.00
2018-04-30T12:50:31.288Z,34.20
2018-04-30T12:52:59.595Z,29.80
2018-04-30T12:55:27.114Z,29.80
2018-04-30T12:57:54.608Z,32.40
2018-04-30T13:00:22.116Z,31.60
2018-04-30T13:02:49.612Z,33.00
2018-04-30T13:05:17.117Z,33.10
2018-04-30T13:07:44.646Z,31.00
2018-04-30T13:10:12.903Z,33.90
2018-04-30T13:12:40.423Z,33.90
2018-04-30T13:15:07.919Z,31.00
2018-04-30T13:17:35.434Z,34.50
2018-04-30T13:20:03.749Z,38.20
2018-04-30T13:22:31.253Z,38.20
2018-04-30T13:24:58.731Z,35.00
2018-04-30T13:27:27.008Z,33.30
2018-04-30T13:29:55.275Z,31.40
2018-04-30T13:32:22.799Z,31.40
2018-04-30T13:34:50.297Z,35.20
2018-04-30T13:37:17.788Z,32.80
2018-04-30T13:39:46.052Z,36.00
2018-04-30T13:42:13.550Z,35.90
2018-04-30T13:44:41.066Z,33.50
2018-04-30T13:47:08.569Z,34.10
2018-04-30T13:49:36.067Z,35.40
2018-04-30T13:52:03.606Z,35.10
2018-04-30T13:54:31.115Z,34.90
2018-04-30T13:56:58.764Z,35.90
2018-04-30T13:59:26.260Z,36.30
2018-04-30T14:01:53.818Z,38.00
2018-04-30T14:04:21.299Z,38.00
2018-04-30T14:06:49.571Z,33.30
2018-04-30T14:09:17.846Z,33.40
2018-04-30T14:11:45.361Z,33.50
2018-04-30T14:14:12.867Z,33.50
2018-04-30T14:16:40.379Z,29.70
2018-04-30T14:19:07.872Z,30.50
2018-04-30T14:21:35.409Z,30.00
2018-04-30T14:24:02.933Z,35.00
2018-04-30T14:26:31.197Z,32.90
2018-04-30T14:28:58.693Z,33.00
2018-04-30T14:31:26.199Z,31.40
2018-04-30T14:33:54.618Z,30.90
2018-04-30T14:36:22.893Z,31.90
2018-04-30T14:38:51.158Z,33.00
2018-04-30T14:41:18.684Z,33.00
2018-04-30T14:43:46.189Z,35.80
2018-04-30T14:46:13.701Z,38.40
2018-04-30T14:48:41.203Z,38.50
2018-04-30T14:51:08.697Z,39.00
2018-04-30T14:53:36.196Z,39.10
2018-04-30T14:56:03.715Z,40.50
2018-04-30T14:58:31.292Z,40.80
2018-04-30T15:00:59.567Z,40.70
2018-04-30T15:03:27.897Z,40.90
2018-04-30T15:05:55.400Z,40.90
2018-04-30T15:08:22.893Z,42.40
2018-04-30T15:10:50.386Z,41.80
2018-04-30T15:13:17.898Z,41.80
2018-04-30T15:15:46.152Z,44.20
2018-04-30T15:18:13.655Z,44.20
2018-04-30T15:20:41.924Z,44.70
2018-04-30T15:23:10.192Z,46.20
2018-04-30T15:25:37.681Z,46.20
2018-04-30T15:28:06.033Z,45.20
2018-04-30T15:30:34.225Z,45.00
2018-04-30T15:33:02.524Z,46.40
2018-04-30T15:35:30.991Z,46.30
2018-04-30T15:37:58.503Z,46.30
2018-04-30T15:40:25.992Z,45.20
2018-04-30T15:42:53.493Z,45.50
2018-04-30T15:45:21.756Z,43.30
2018-04-30T15:47:49.284Z,43.30
2018-04-30T15:50:16.770Z,42.80
2018-04-30T15:52:44.267Z,45.60
2018-04-30T15:55:12.525Z,46.90
2018-04-30T15:57:40.781Z,44.30
2018-04-30T16:00:08.325Z,44.30
2018-04-30T16:02:35.809Z,45.90
2018-04-30T16:05:04.077Z,43.60
2018-04-30T16:07:31.553Z,43.60
2018-04-30T16:09:59.041Z,44.10
2018-04-30T16:12:27.306Z,43.30
2018-04-30T16:14:54.811Z,43.30
2018-04-30T16:17:22.337Z,43.60
2018-04-30T16:19:49.826Z,46.30
2018-04-30T16:22:18.100Z,45.40
2018-04-30T16:24:45.599Z,45.30
2018-04-30T16:27:13.113Z,43.30
2018-04-30T16:29:40.663Z,44.40
2018-04-30T16:32:08.145Z,45.20
2018-04-30T16:34:36.411Z,44.30
2018-04-30T16:37:03.925Z,44.20
2018-04-30T16:39:31.469Z,44.10
2018-04-30T16:41:58.953Z,44.70
2018-04-30T16:44:26.449Z,44.10
2018-04-30T16:46:55.463Z,44.60
2018-04-30T16:49:22.957Z,44.00
2018-04-30T16:51:51.210Z,45.20
2018-04-30T16:54:18.884Z,45.20
2018-04-30T16:56:47.162Z,45.40
2018-04-30T16:59:15.491Z,46.50
2018-04-30T17:01:43.714Z,45.90
2018-04-30T17:04:11.208Z,45.90
2018-04-30T17:06:38.741Z,46.40
2018-04-30T17:09:06.247Z,47.00
2018-04-30T17:11:33.738Z,44.40
2018-04-30T17:14:01.246Z,45.20
2018-04-30T17:16:29.508Z,47.10
2018-04-30T17:18:57.009Z,47.10
2018-04-30T17:21:24.503Z,50.10
2018-04-30T17:23:52.775Z,52.30
2018-04-30T17:26:20.275Z,52.30
2018-04-30T17:28:50.158Z,54.40
2018-04-30T17:31:17.645Z,55.10
2018-04-30T17:33:45.146Z,54.40
2018-04-30T17:36:13.425Z,53.80
2018-04-30T17:38:41.670Z,55.10
2018-04-30T17:41:09.172Z,55.10
2018-04-30T17:43:36.677Z,53.80
2018-04-30T17:46:04.164Z,54.10
2018-04-30T17:48:31.665Z,54.50
2018-04-30T17:50:59.160Z,54.40
2018-04-30T17:53:26.693Z,53.80
2018-04-30T17:55:54.185Z,57.00
2018-04-30T17:58:21.684Z,55.60
2018-04-30T18:00:49.180Z,56.20
2018-04-30T18:03:16.776Z,55.30
2018-04-30T18:05:44.329Z,55.90
2018-04-30T18:08:11.821Z,55.20
2018-04-30T18:10:39.310Z,55.20
2018-04-30T18:13:07.582Z,54.80
2018-04-30T18:15:35.090Z,54.80
2018-04-30T18:18:02.602Z,54.10
2018-04-30T18:20:30.103Z,54.50
2018-04-30T18:22:57.627Z,55.70
2018-04-30T18:25:25.130Z,57.30
2018-04-30T18:27:52.617Z,57.30
2018-04-30T18:30:20.205Z,59.00
2018-04-30T18:32:47.698Z,56.90
2018-04-30T18:35:15.964Z,56.70
2018-04-30T18:37:43.482Z,56.60
2018-04-30T18:40:10.972Z,57.90
2018-04-30T18:42:38.454Z,56.90
2018-04-30T18:45:05.990Z,56.50
2018-04-30T18:47:33.476Z,56.80
2018-04-30T18:50:00.974Z,56.30
2018-04-30T18:52:28.524Z,57.30
2018-04-30T18:54:56.146Z,57.50
2018-04-30T18:57:24.402Z,58.00
2018-04-30T18:59:51.908Z,58.00
2018-04-30T19:02:19.397Z,58.90
2018-04-30T19:04:47.714Z,57.70
2018-04-30T19:07:15.203Z,57.70
2018-04-30T19:09:42.680Z,58.00
2018-04-30T19:12:10.179Z,57.60
2018-04-30T19:14:37.687Z,59.30
2018-04-30T19:17:05.187Z,59.30
2018-04-30T19:19:33.458Z,59.70
2018-04-30T19:22:00.953Z,59.70
2018-04-30T19:24:28.447Z,60.10
2018-04-30T19:26:55.935Z,60.20
2018-04-30T19:29:23.465Z,61.10
2018-04-30T19:31:51.275Z,59.60
2018-04-30T19:34:18.696Z,59.30
2018-04-30T19:36:46.505Z,60.30
2018-04-30T19:39:13.994Z,60.90
2018-04-30T19:41:42.264Z,61.40
2018-04-30T19:44:10.529Z,61.40
2018-04-30T19:46:38.020Z,61.40
2018-04-30T19:49:06.283Z,61.40
2018-04-30T19:51:34.536Z,62.00
2018-04-30T19:54:02.041Z,62.00
2018-04-30T19:56:30.289Z,64.00
2018-04-30T19:58:57.767Z,64.10
2018-04-30T20:01:25.255Z,64.40
2018-04-30T20:03:52.924Z,64.50
2018-04-30T20:06:20.476Z,64.40
2018-04-30T20:08:48.762Z,64.00
2018-04-30T20:11:16.986Z,63.20
2018-04-30T20:13:44.496Z,63.10
2018-04-30T20:16:12.750Z,65.20
2018-04-30T20:18:40.270Z,65.20
2018-04-30T20:21:07.833Z,64.90
2018-04-30T20:23:35.531Z,60.90
2018-04-30T20:26:03.160Z,61.10
2018-04-30T20:28:30.799Z,60.80
2018-04-30T20:30:59.081Z,59.20
2018-04-30T20:33:27.332Z,57.90
2018-04-30T20:35:54.838Z,57.80
2018-04-30T20:38:22.345Z,57.50
2018-04-30T20:40:49.830Z,57.50
2018-04-30T20:43:17.319Z,58.10
2018-04-30T20:45:45.587Z,57.60
2018-04-30T20:48:13.864Z,58.60
2018-04-30T20:50:42.134Z,58.50
2018-04-30T20:53:09.612Z,58.60
2018-04-30T20:55:37.892Z,59.60
2018-04-30T20:58:06.153Z,61.80
2018-04-30T21:00:33.845Z,61.80
2018-04-30T21:03:02.106Z,64.00
2018-04-30T21:05:29.601Z,64.00
2018-04-30T21:07:57.095Z,61.40
2018-04-30T21:10:25.343Z,60.40
2018-04-30T21:12:52.836Z,60.30
2018-04-30T21:15:21.122Z,58.50
2018-04-30T21:17:48.623Z,58.40
2018-04-30T21:20:16.106Z,58.70
2018-04-30T21:22:44.375Z,59.00
2018-04-30T21:25:12.640Z,58.90
2018-04-30T21:27:40.129Z,58.90
2018-04-30T21:30:08.387Z,62.00
2018-04-30T21:32:36.649Z,62.60
2018-04-30T21:35:04.190Z,62.50
2018-04-30T21:37:31.672Z,61.50
2018-04-30T21:39:59.205Z,62.40
2018-04-30T21:42:26.657Z,62.80
2018-04-30T21:44:54.158Z,64.90
2018-04-30T21:47:21.656Z,64.50
2018-04-30T21:49:49.899Z,63.50
2018-04-30T21:52:17.408Z,63.40
2018-04-30T21:54:45.660Z,68.00
2018-04-30T21:57:13.152Z,68.00
2018-04-30T21:59:41.412Z,60.30
2018-04-30T22:02:08.906Z,60.40
2018-04-30T22:04:36.404Z,61.00
2018-04-30T22:07:03.921Z,61.40
2018-04-30T22:09:31.440Z,64.50
2018-04-30T22:11:59.008Z,66.60
2018-04-30T22:14:26.444Z,67.50
2018-04-30T22:16:53.976Z,68.20
2018-04-30T22:19:22.216Z,70.10
2018-04-30T22:21:49.696Z,70.10
2018-04-30T22:24:17.199Z,69.80
2018-04-30T22:26:44.677Z,70.70
2018-04-30T22:29:12.188Z,71.60
2018-04-30T22:31:39.664Z,69.60
2018-04-30T22:34:07.912Z,69.40
2018-04-30T22:36:35.407Z,69.40
2018-04-30T22:39:03.680Z,71.30
2018-04-30T22:41:31.954Z,72.60
2018-04-30T22:44:00.208Z,73.70
2018-04-30T22:46:27.718Z,73.60
2018-04-30T22:48:55.219Z,74.80
2018-04-30T22:51:22.709Z,74.30
2018-04-30T22:53:50.197Z,75.00
2018-04-30T22:56:18.458Z,75.30
2018-04-30T22:58:45.939Z,75.20
2018-04-30T23:01:14.209Z,76.30
2018-04-30T23:03:42.457Z,75.60
2018-04-30T23:06:09.957Z,75.50
2018-04-30T23:08:38.213Z,75.60
2018-04-30T23:11:05.694Z,75.50
2018-04-30T23:13:33.955Z,75.90
2018-04-30T23:16:02.218Z,76.90
2018-04-30T23:18:29.731Z,76.90
2018-04-30T23:20:57.991Z,77.00
2018-04-30T23:23:25.483Z,77.00
2018-04-30T23:25:52.969Z,77.50
2018-04-30T23:28:20.453Z,77.40
2018-04-30T23:30:47.949Z,77.30
2018-04-30T23:33:16.201Z,77.80
2018-04-30T23:35:43.697Z,77.80
2018-04-30T23:38:11.204Z,77.50
2018-04-30T23:40:38.700Z,76.80
2018-04-30T23:43:06.197Z,77.50
2018-04-30T23:45:33.688Z,78.10
2018-04-30T23:48:01.176Z,78.90
2018-04-30T23:50:29.436Z,79.70
2018-04-30T23:52:56.940Z,79.70
2018-04-30T23:55:24.628Z,80.20
2018-04-30T23:57:52.887Z,80.60
